sensor_id;sensor_type;location;lat;lon;timestamp;temperature;humidity
33943;DHT22;66763;47.856;17.462;2023-10-09T00:01:06;19.70;51.30
33943;DHT22;66763;47.856;17.462;2023-10-09T00:03:41;19.70;51.40
33943;DHT22;66763;47.856;17.462;2023-10-09T00:06:08;19.70;51.30
33943;DHT22;66763;47.856;17.462;2023-10-09T00:08:34;19.70;51.20
33943;DHT22;66763;47.856;17.462;2023-10-09T00:11:02;19.70;51.00
33943;DHT22;66763;47.856;17.462;2023-10-09T00:13:44;19.70;51.10
33943;DHT22;66763;47.856;17.462;2023-10-09T00:16:23;19.70;51.20
33943;DHT22;66763;47.856;17.462;2023-10-09T00:19:01;19.70;51.20
33943;DHT22;66763;47.856;17.462;2023-10-09T00:21:44;19.70;51.20
33943;DHT22;66763;47.856;17.462;2023-10-09T00:24:10;19.70;51.30
33943;DHT22;66763;47.856;17.462;2023-10-09T00:26:44;19.70;51.20
33943;DHT22;66763;47.856;17.462;2023-10-09T00:29:11;19.70;51.10
33943;DHT22;66763;47.856;17.462;2023-10-09T00:31:41;19.70;51.20
33943;DHT22;66763;47.856;17.462;2023-10-09T00:34:16;19.60;51.20
33943;DHT22;66763;47.856;17.462;2023-10-09T00:36:45;19.70;51.90
33943;DHT22;66763;47.856;17.462;2023-10-09T00:39:17;19.70;51.20
33943;DHT22;66763;47.856;17.462;2023-10-09T00:41:58;19.70;51.20
33943;DHT22;66763;47.856;17.462;2023-10-09T00:44:26;19.60;51.20
33943;DHT22;66763;47.856;17.462;2023-10-09T00:47:04;19.70;51.30
33943;DHT22;66763;47.856;17.462;2023-10-09T00:49:36;19.60;51.40
33943;DHT22;66763;47.856;17.462;2023-10-09T00:52:04;19.70;51.20
33943;DHT22;66763;47.856;17.462;2023-10-09T00:54:30;19.70;51.30
33943;DHT22;66763;47.856;17.462;2023-10-09T00:57:06;19.70;51.30
33943;DHT22;66763;47.856;17.462;2023-10-09T00:59:32;19.70;51.30
33943;DHT22;66763;47.856;17.462;2023-10-09T01:01:59;19.70;51.30
33943;DHT22;66763;47.856;17.462;2023-10-09T01:04:30;19.70;51.30
33943;DHT22;66763;47.856;17.462;2023-10-09T01:07:02;19.70;51.30
33943;DHT22;66763;47.856;17.462;2023-10-09T01:09:49;19.70;51.30
33943;DHT22;66763;47.856;17.462;2023-10-09T01:12:18;19.70;51.30
33943;DHT22;66763;47.856;17.462;2023-10-09T01:14:44;19.70;51.30
33943;DHT22;66763;47.856;17.462;2023-10-09T01:17:10;19.70;51.30
33943;DHT22;66763;47.856;17.462;2023-10-09T01:19:37;19.60;51.30
33943;DHT22;66763;47.856;17.462;2023-10-09T01:22:02;19.70;51.30
33943;DHT22;66763;47.856;17.462;2023-10-09T01:24:41;19.70;51.30
33943;DHT22;66763;47.856;17.462;2023-10-09T01:27:08;19.70;51.30
33943;DHT22;66763;47.856;17.462;2023-10-09T01:29:40;19.70;51.90
33943;DHT22;66763;47.856;17.462;2023-10-09T01:32:07;19.70;51.20
33943;DHT22;66763;47.856;17.462;2023-10-09T01:34:35;19.70;51.20
33943;DHT22;66763;47.856;17.462;2023-10-09T01:37:12;19.70;51.20
33943;DHT22;66763;47.856;17.462;2023-10-09T01:39:43;19.70;51.30
33943;DHT22;66763;47.856;17.462;2023-10-09T01:42:10;19.70;51.20
33943;DHT22;66763;47.856;17.462;2023-10-09T01:44:36;19.70;51.20
33943;DHT22;66763;47.856;17.462;2023-10-09T01:47:08;19.70;51.20
33943;DHT22;66763;47.856;17.462;2023-10-09T01:49:34;19.70;51.20
33943;DHT22;66763;47.856;17.462;2023-10-09T01:52:01;19.70;51.20
33943;DHT22;66763;47.856;17.462;2023-10-09T01:54:38;19.70;51.10
33943;DHT22;66763;47.856;17.462;2023-10-09T01:57:07;19.70;51.10
33943;DHT22;66763;47.856;17.462;2023-10-09T01:59:47;19.70;51.10
33943;DHT22;66763;47.856;17.462;2023-10-09T02:02:17;19.70;51.20
33943;DHT22;66763;47.856;17.462;2023-10-09T02:04:53;19.70;51.20
33943;DHT22;66763;47.856;17.462;2023-10-09T02:07:38;19.60;51.10
33943;DHT22;66763;47.856;17.462;2023-10-09T02:10:13;19.60;51.00
33943;DHT22;66763;47.856;17.462;2023-10-09T02:12:57;19.60;51.10
33943;DHT22;66763;47.856;17.462;2023-10-09T02:15:26;19.60;51.70
33943;DHT22;66763;47.856;17.462;2023-10-09T02:18:17;19.60;51.00
33943;DHT22;66763;47.856;17.462;2023-10-09T02:20:46;19.60;51.20
33943;DHT22;66763;47.856;17.462;2023-10-09T02:23:12;19.60;51.10
33943;DHT22;66763;47.856;17.462;2023-10-09T02:25:49;19.60;51.10
33943;DHT22;66763;47.856;17.462;2023-10-09T02:28:18;19.60;50.90
33943;DHT22;66763;47.856;17.462;2023-10-09T02:30:44;19.60;51.00
33943;DHT22;66763;47.856;17.462;2023-10-09T02:33:14;19.60;51.10
33943;DHT22;66763;47.856;17.462;2023-10-09T02:35:55;19.60;51.00
33943;DHT22;66763;47.856;17.462;2023-10-09T02:38:25;19.60;51.10
33943;DHT22;66763;47.856;17.462;2023-10-09T02:40:51;19.60;51.00
33943;DHT22;66763;47.856;17.462;2023-10-09T02:43:30;19.60;51.00
33943;DHT22;66763;47.856;17.462;2023-10-09T02:46:15;19.60;51.10
33943;DHT22;66763;47.856;17.462;2023-10-09T02:48:44;19.60;51.00
33943;DHT22;66763;47.856;17.462;2023-10-09T02:54:07;19.60;50.90
33943;DHT22;66763;47.856;17.462;2023-10-09T02:56:44;19.60;51.10
33943;DHT22;66763;47.856;17.462;2023-10-09T02:59:13;19.60;51.10
33943;DHT22;66763;47.856;17.462;2023-10-09T03:01:39;19.60;51.10
33943;DHT22;66763;47.856;17.462;2023-10-09T03:04:14;19.60;51.00
33943;DHT22;66763;47.856;17.462;2023-10-09T03:06:43;19.60;51.10
33943;DHT22;66763;47.856;17.462;2023-10-09T03:09:18;19.60;51.10
33943;DHT22;66763;47.856;17.462;2023-10-09T03:11:48;19.60;51.10
33943;DHT22;66763;47.856;17.462;2023-10-09T03:14:18;19.60;51.10
33943;DHT22;66763;47.856;17.462;2023-10-09T03:16:46;19.60;51.00
33943;DHT22;66763;47.856;17.462;2023-10-09T03:19:13;19.60;51.10
33943;DHT22;66763;47.856;17.462;2023-10-09T03:21:39;19.60;51.10
33943;DHT22;66763;47.856;17.462;2023-10-09T03:24:04;19.60;51.00
33943;DHT22;66763;47.856;17.462;2023-10-09T03:26:30;19.60;51.00
33943;DHT22;66763;47.856;17.462;2023-10-09T03:28:56;19.60;51.10
33943;DHT22;66763;47.856;17.462;2023-10-09T03:31:23;19.60;51.00
33943;DHT22;66763;47.856;17.462;2023-10-09T03:33:48;19.60;51.10
33943;DHT22;66763;47.856;17.462;2023-10-09T03:36:14;19.60;50.90
33943;DHT22;66763;47.856;17.462;2023-10-09T03:38:42;19.60;51.10
33943;DHT22;66763;47.856;17.462;2023-10-09T03:41:07;19.60;51.10
33943;DHT22;66763;47.856;17.462;2023-10-09T03:43:37;19.60;51.00
33943;DHT22;66763;47.856;17.462;2023-10-09T03:46:05;19.60;51.10
33943;DHT22;66763;47.856;17.462;2023-10-09T03:48:37;19.60;51.00
33943;DHT22;66763;47.856;17.462;2023-10-09T03:51:02;19.60;51.10
33943;DHT22;66763;47.856;17.462;2023-10-09T03:53:37;19.60;51.10
33943;DHT22;66763;47.856;17.462;2023-10-09T03:56:05;19.60;51.10
33943;DHT22;66763;47.856;17.462;2023-10-09T03:58:40;19.60;51.10
33943;DHT22;66763;47.856;17.462;2023-10-09T04:01:41;19.60;51.10
33943;DHT22;66763;47.856;17.462;2023-10-09T04:04:06;19.60;51.10
33943;DHT22;66763;47.856;17.462;2023-10-09T04:06:35;19.60;51.10
33943;DHT22;66763;47.856;17.462;2023-10-09T04:11:48;19.60;51.20
33943;DHT22;66763;47.856;17.462;2023-10-09T04:14:22;19.60;51.10
33943;DHT22;66763;47.856;17.462;2023-10-09T04:17:00;19.60;51.10
33943;DHT22;66763;47.856;17.462;2023-10-09T04:19:49;19.60;51.10
33943;DHT22;66763;47.856;17.462;2023-10-09T04:22:38;19.60;51.10
33943;DHT22;66763;47.856;17.462;2023-10-09T04:25:15;19.60;51.00
33943;DHT22;66763;47.856;17.462;2023-10-09T04:27:41;19.60;51.10
33943;DHT22;66763;47.856;17.462;2023-10-09T04:30:07;19.60;51.10
33943;DHT22;66763;47.856;17.462;2023-10-09T04:32:33;19.60;51.10
33943;DHT22;66763;47.856;17.462;2023-10-09T04:35:00;19.60;51.10
33943;DHT22;66763;47.856;17.462;2023-10-09T04:37:43;19.60;51.10
33943;DHT22;66763;47.856;17.462;2023-10-09T04:40:17;19.60;51.10
33943;DHT22;66763;47.856;17.462;2023-10-09T04:43:01;19.60;51.00
33943;DHT22;66763;47.856;17.462;2023-10-09T04:45:31;19.60;51.00
33943;DHT22;66763;47.856;17.462;2023-10-09T04:48:09;19.60;51.00
33943;DHT22;66763;47.856;17.462;2023-10-09T04:50:35;19.60;51.10
33943;DHT22;66763;47.856;17.462;2023-10-09T04:53:04;19.60;51.10
33943;DHT22;66763;47.856;17.462;2023-10-09T04:55:41;19.60;51.10
33943;DHT22;66763;47.856;17.462;2023-10-09T04:58:22;19.60;51.00
33943;DHT22;66763;47.856;17.462;2023-10-09T05:00:54;19.60;51.10
33943;DHT22;66763;47.856;17.462;2023-10-09T05:03:22;19.60;51.10
33943;DHT22;66763;47.856;17.462;2023-10-09T05:05:53;19.60;51.10
33943;DHT22;66763;47.856;17.462;2023-10-09T05:08:25;19.60;51.10
33943;DHT22;66763;47.856;17.462;2023-10-09T05:10:54;19.60;51.10
33943;DHT22;66763;47.856;17.462;2023-10-09T05:13:23;19.60;51.10
33943;DHT22;66763;47.856;17.462;2023-10-09T05:16:07;19.60;51.00
33943;DHT22;66763;47.856;17.462;2023-10-09T05:18:39;19.60;51.00
33943;DHT22;66763;47.856;17.462;2023-10-09T05:21:04;19.60;51.00
33943;DHT22;66763;47.856;17.462;2023-10-09T05:23:39;19.60;51.10
33943;DHT22;66763;47.856;17.462;2023-10-09T05:26:31;19.60;51.10
33943;DHT22;66763;47.856;17.462;2023-10-09T05:29:11;19.60;51.00
33943;DHT22;66763;47.856;17.462;2023-10-09T05:31:56;19.60;51.00
33943;DHT22;66763;47.856;17.462;2023-10-09T05:34:22;19.50;51.00
33943;DHT22;66763;47.856;17.462;2023-10-09T05:36:48;19.50;51.00
33943;DHT22;66763;47.856;17.462;2023-10-09T05:39:14;19.50;50.90
33943;DHT22;66763;47.856;17.462;2023-10-09T05:42:06;19.50;51.00
33943;DHT22;66763;47.856;17.462;2023-10-09T05:44:35;19.50;50.90
33943;DHT22;66763;47.856;17.462;2023-10-09T05:47:19;19.50;50.90
33943;DHT22;66763;47.856;17.462;2023-10-09T05:49:54;19.50;50.90
33943;DHT22;66763;47.856;17.462;2023-10-09T05:52:22;19.50;50.90
33943;DHT22;66763;47.856;17.462;2023-10-09T05:55:06;19.50;51.00
33943;DHT22;66763;47.856;17.462;2023-10-09T05:57:46;19.50;51.00
33943;DHT22;66763;47.856;17.462;2023-10-09T06:00:20;19.50;51.00
33943;DHT22;66763;47.856;17.462;2023-10-09T06:03:05;19.50;51.00
33943;DHT22;66763;47.856;17.462;2023-10-09T06:05:49;19.50;50.80
33943;DHT22;66763;47.856;17.462;2023-10-09T06:08:25;19.50;51.10
33943;DHT22;66763;47.856;17.462;2023-10-09T06:11:09;19.50;51.00
33943;DHT22;66763;47.856;17.462;2023-10-09T06:13:53;19.40;51.00
33943;DHT22;66763;47.856;17.462;2023-10-09T06:16:37;19.50;51.10
33943;DHT22;66763;47.856;17.462;2023-10-09T06:19:03;19.50;51.10
33943;DHT22;66763;47.856;17.462;2023-10-09T06:21:40;19.50;51.70
33943;DHT22;66763;47.856;17.462;2023-10-09T06:24:07;19.50;51.00
33943;DHT22;66763;47.856;17.462;2023-10-09T06:26:43;19.50;51.10
33943;DHT22;66763;47.856;17.462;2023-10-09T06:29:26;19.50;51.00
33943;DHT22;66763;47.856;17.462;2023-10-09T06:34:51;19.50;51.10
33943;DHT22;66763;47.856;17.462;2023-10-09T06:37:20;19.40;51.00
33943;DHT22;66763;47.856;17.462;2023-10-09T06:39:52;19.50;51.10
33943;DHT22;66763;47.856;17.462;2023-10-09T06:42:24;19.50;51.00
33943;DHT22;66763;47.856;17.462;2023-10-09T06:47:29;19.50;51.00
33943;DHT22;66763;47.856;17.462;2023-10-09T06:50:02;19.50;51.00
33943;DHT22;66763;47.856;17.462;2023-10-09T06:52:46;19.50;51.10
33943;DHT22;66763;47.856;17.462;2023-10-09T06:55:43;19.50;51.10
33943;DHT22;66763;47.856;17.462;2023-10-09T06:58:16;19.50;51.10
33943;DHT22;66763;47.856;17.462;2023-10-09T07:00:51;19.50;51.10
33943;DHT22;66763;47.856;17.462;2023-10-09T07:03:19;19.50;51.00
33943;DHT22;66763;47.856;17.462;2023-10-09T07:05:45;19.50;50.70
33943;DHT22;66763;47.856;17.462;2023-10-09T07:08:30;19.50;51.00
33943;DHT22;66763;47.856;17.462;2023-10-09T07:11:05;19.50;51.00
33943;DHT22;66763;47.856;17.462;2023-10-09T07:13:47;19.50;51.10
33943;DHT22;66763;47.856;17.462;2023-10-09T07:16:21;19.50;50.90
33943;DHT22;66763;47.856;17.462;2023-10-09T07:18:54;19.50;51.00
33943;DHT22;66763;47.856;17.462;2023-10-09T07:21:20;19.50;50.90
33943;DHT22;66763;47.856;17.462;2023-10-09T07:23:53;19.50;51.00
33943;DHT22;66763;47.856;17.462;2023-10-09T07:26:22;19.50;51.00
33943;DHT22;66763;47.856;17.462;2023-10-09T07:29:02;19.50;51.00
33943;DHT22;66763;47.856;17.462;2023-10-09T07:31:42;19.50;51.00
33943;DHT22;66763;47.856;17.462;2023-10-09T07:34:11;19.50;51.00
33943;DHT22;66763;47.856;17.462;2023-10-09T07:36:56;19.50;51.00
33943;DHT22;66763;47.856;17.462;2023-10-09T07:39:22;19.50;51.10
33943;DHT22;66763;47.856;17.462;2023-10-09T07:41:48;19.50;51.00
33943;DHT22;66763;47.856;17.462;2023-10-09T07:44:32;19.50;51.00
33943;DHT22;66763;47.856;17.462;2023-10-09T07:47:02;19.50;51.10
33943;DHT22;66763;47.856;17.462;2023-10-09T07:49:43;19.50;51.10
33943;DHT22;66763;47.856;17.462;2023-10-09T07:52:14;19.50;51.00
33943;DHT22;66763;47.856;17.462;2023-10-09T07:54:40;19.50;51.00
33943;DHT22;66763;47.856;17.462;2023-10-09T07:57:16;19.50;51.10
33943;DHT22;66763;47.856;17.462;2023-10-09T07:59:42;19.50;51.10
33943;DHT22;66763;47.856;17.462;2023-10-09T08:02:20;19.50;51.10
33943;DHT22;66763;47.856;17.462;2023-10-09T08:05:00;19.50;51.10
33943;DHT22;66763;47.856;17.462;2023-10-09T08:07:46;19.50;51.10
33943;DHT22;66763;47.856;17.462;2023-10-09T08:10:22;19.50;51.10
33943;DHT22;66763;47.856;17.462;2023-10-09T08:12:47;19.50;51.10
33943;DHT22;66763;47.856;17.462;2023-10-09T08:15:16;19.50;51.10
33943;DHT22;66763;47.856;17.462;2023-10-09T08:17:51;19.50;51.10
33943;DHT22;66763;47.856;17.462;2023-10-09T08:20:25;19.50;51.10
33943;DHT22;66763;47.856;17.462;2023-10-09T08:22:53;19.50;51.10
33943;DHT22;66763;47.856;17.462;2023-10-09T08:25:24;19.50;51.20
33943;DHT22;66763;47.856;17.462;2023-10-09T08:28:01;19.50;51.20
33943;DHT22;66763;47.856;17.462;2023-10-09T08:30:47;19.50;51.20
33943;DHT22;66763;47.856;17.462;2023-10-09T08:33:29;19.50;51.20
33943;DHT22;66763;47.856;17.462;2023-10-09T08:36:05;19.50;51.10
33943;DHT22;66763;47.856;17.462;2023-10-09T08:38:33;19.50;51.10
33943;DHT22;66763;47.856;17.462;2023-10-09T08:41:11;19.50;51.10
33943;DHT22;66763;47.856;17.462;2023-10-09T08:43:48;19.50;51.10
33943;DHT22;66763;47.856;17.462;2023-10-09T08:46:17;19.50;51.10
33943;DHT22;66763;47.856;17.462;2023-10-09T08:48:44;19.50;51.10
33943;DHT22;66763;47.856;17.462;2023-10-09T08:51:10;19.50;51.10
33943;DHT22;66763;47.856;17.462;2023-10-09T08:53:35;19.50;51.10
33943;DHT22;66763;47.856;17.462;2023-10-09T08:56:12;19.50;51.10
33943;DHT22;66763;47.856;17.462;2023-10-09T08:58:40;19.50;51.10
33943;DHT22;66763;47.856;17.462;2023-10-09T09:01:06;19.50;51.70
33943;DHT22;66763;47.856;17.462;2023-10-09T09:03:38;19.60;51.10
33943;DHT22;66763;47.856;17.462;2023-10-09T09:06:04;19.50;51.10
33943;DHT22;66763;47.856;17.462;2023-10-09T09:08:31;19.50;51.10
33943;DHT22;66763;47.856;17.462;2023-10-09T09:10:58;19.50;51.70
33943;DHT22;66763;47.856;17.462;2023-10-09T09:13:31;19.50;51.10
33943;DHT22;66763;47.856;17.462;2023-10-09T09:15:57;19.50;51.10
33943;DHT22;66763;47.856;17.462;2023-10-09T09:18:23;19.50;51.10
33943;DHT22;66763;47.856;17.462;2023-10-09T09:20:48;19.50;51.10
33943;DHT22;66763;47.856;17.462;2023-10-09T09:23:18;19.50;51.10
33943;DHT22;66763;47.856;17.462;2023-10-09T09:25:49;19.50;51.00
33943;DHT22;66763;47.856;17.462;2023-10-09T09:28:24;19.50;51.00
33943;DHT22;66763;47.856;17.462;2023-10-09T09:30:52;19.50;51.00
33943;DHT22;66763;47.856;17.462;2023-10-09T09:33:28;19.50;51.00
33943;DHT22;66763;47.856;17.462;2023-10-09T09:36:06;19.50;51.00
33943;DHT22;66763;47.856;17.462;2023-10-09T09:38:33;19.50;51.00
33943;DHT22;66763;47.856;17.462;2023-10-09T09:41:18;19.50;51.00
33943;DHT22;66763;47.856;17.462;2023-10-09T09:43:53;19.50;51.00
33943;DHT22;66763;47.856;17.462;2023-10-09T09:46:24;19.50;51.00
33943;DHT22;66763;47.856;17.462;2023-10-09T09:49:02;19.50;51.10
33943;DHT22;66763;47.856;17.462;2023-10-09T09:51:31;19.50;51.00
33943;DHT22;66763;47.856;17.462;2023-10-09T09:53:57;19.50;51.00
33943;DHT22;66763;47.856;17.462;2023-10-09T09:56:26;19.40;51.00
33943;DHT22;66763;47.856;17.462;2023-10-09T09:58:53;19.50;51.00
33943;DHT22;66763;47.856;17.462;2023-10-09T10:01:26;19.50;51.00
33943;DHT22;66763;47.856;17.462;2023-10-09T10:04:01;19.50;50.90
33943;DHT22;66763;47.856;17.462;2023-10-09T10:06:29;19.50;51.00
33943;DHT22;66763;47.856;17.462;2023-10-09T10:08:58;19.50;51.00
33943;DHT22;66763;47.856;17.462;2023-10-09T10:11:40;19.50;51.00
33943;DHT22;66763;47.856;17.462;2023-10-09T10:14:07;19.50;50.90
33943;DHT22;66763;47.856;17.462;2023-10-09T10:16:59;19.50;51.00
33943;DHT22;66763;47.856;17.462;2023-10-09T10:19:34;19.50;51.00
33943;DHT22;66763;47.856;17.462;2023-10-09T10:22:25;19.50;50.90
33943;DHT22;66763;47.856;17.462;2023-10-09T10:24:53;19.50;51.00
33943;DHT22;66763;47.856;17.462;2023-10-09T10:27:20;19.50;50.90
33943;DHT22;66763;47.856;17.462;2023-10-09T10:35:16;19.50;51.00
33943;DHT22;66763;47.856;17.462;2023-10-09T10:37:46;19.50;51.00
33943;DHT22;66763;47.856;17.462;2023-10-09T10:40:26;19.50;51.00
33943;DHT22;66763;47.856;17.462;2023-10-09T10:43:14;19.50;51.00
33943;DHT22;66763;47.856;17.462;2023-10-09T10:48:35;19.50;51.00
33943;DHT22;66763;47.856;17.462;2023-10-09T10:51:04;19.50;51.00
33943;DHT22;66763;47.856;17.462;2023-10-09T10:53:30;19.50;51.00
33943;DHT22;66763;47.856;17.462;2023-10-09T10:56:13;19.40;51.00
33943;DHT22;66763;47.856;17.462;2023-10-09T10:58:41;19.50;51.00
33943;DHT22;66763;47.856;17.462;2023-10-09T11:01:19;19.50;51.00
33943;DHT22;66763;47.856;17.462;2023-10-09T11:03:49;19.50;51.00
33943;DHT22;66763;47.856;17.462;2023-10-09T11:06:31;19.50;50.90
33943;DHT22;66763;47.856;17.462;2023-10-09T11:09:09;19.50;51.00
33943;DHT22;66763;47.856;17.462;2023-10-09T11:11:36;19.40;50.90
33943;DHT22;66763;47.856;17.462;2023-10-09T11:14:08;19.40;50.90
33943;DHT22;66763;47.856;17.462;2023-10-09T11:16:39;19.50;51.00
33943;DHT22;66763;47.856;17.462;2023-10-09T11:19:13;19.50;50.90
33943;DHT22;66763;47.856;17.462;2023-10-09T11:21:58;19.50;50.90
33943;DHT22;66763;47.856;17.462;2023-10-09T11:24:33;19.40;50.90
33943;DHT22;66763;47.856;17.462;2023-10-09T11:27:00;19.50;51.00
33943;DHT22;66763;47.856;17.462;2023-10-09T11:29:34;19.50;51.00
33943;DHT22;66763;47.856;17.462;2023-10-09T11:32:13;19.50;51.00
33943;DHT22;66763;47.856;17.462;2023-10-09T11:34:48;19.50;51.00
33943;DHT22;66763;47.856;17.462;2023-10-09T11:37:21;19.50;51.00
33943;DHT22;66763;47.856;17.462;2023-10-09T11:39:56;19.50;51.00
33943;DHT22;66763;47.856;17.462;2023-10-09T11:42:22;19.50;51.00
33943;DHT22;66763;47.856;17.462;2023-10-09T11:45:25;19.50;51.00
33943;DHT22;66763;47.856;17.462;2023-10-09T11:47:54;19.50;51.00
33943;DHT22;66763;47.856;17.462;2023-10-09T11:53:08;19.50;51.00
33943;DHT22;66763;47.856;17.462;2023-10-09T11:55:37;19.50;51.00
33943;DHT22;66763;47.856;17.462;2023-10-09T11:58:03;19.50;51.00
33943;DHT22;66763;47.856;17.462;2023-10-09T12:00:30;19.40;51.00
33943;DHT22;66763;47.856;17.462;2023-10-09T12:02:56;19.50;51.00
33943;DHT22;66763;47.856;17.462;2023-10-09T12:05:30;19.50;51.00
33943;DHT22;66763;47.856;17.462;2023-10-09T12:07:56;19.50;51.10
33943;DHT22;66763;47.856;17.462;2023-10-09T12:10:22;19.50;51.00
33943;DHT22;66763;47.856;17.462;2023-10-09T12:12:54;19.40;51.10
33943;DHT22;66763;47.856;17.462;2023-10-09T12:15:25;19.40;51.00
33943;DHT22;66763;47.856;17.462;2023-10-09T12:18:02;19.50;51.10
33943;DHT22;66763;47.856;17.462;2023-10-09T12:20:29;19.50;51.10
33943;DHT22;66763;47.856;17.462;2023-10-09T12:22:57;19.50;51.10
33943;DHT22;66763;47.856;17.462;2023-10-09T12:25:23;19.50;51.10
33943;DHT22;66763;47.856;17.462;2023-10-09T12:27:49;19.50;51.10
33943;DHT22;66763;47.856;17.462;2023-10-09T12:30:14;19.50;51.10
33943;DHT22;66763;47.856;17.462;2023-10-09T12:32:40;19.50;51.10
33943;DHT22;66763;47.856;17.462;2023-10-09T12:35:06;19.50;51.10
33943;DHT22;66763;47.856;17.462;2023-10-09T12:37:42;19.50;51.10
33943;DHT22;66763;47.856;17.462;2023-10-09T12:40:08;19.50;51.10
33943;DHT22;66763;47.856;17.462;2023-10-09T12:42:36;19.50;51.10
33943;DHT22;66763;47.856;17.462;2023-10-09T12:45:02;19.50;51.20
33943;DHT22;66763;47.856;17.462;2023-10-09T12:47:36;19.40;51.10
33943;DHT22;66763;47.856;17.462;2023-10-09T12:50:07;19.50;51.10
33943;DHT22;66763;47.856;17.462;2023-10-09T12:52:39;19.50;51.10
33943;DHT22;66763;47.856;17.462;2023-10-09T12:55:05;19.50;51.10
33943;DHT22;66763;47.856;17.462;2023-10-09T12:57:35;19.50;51.20
33943;DHT22;66763;47.856;17.462;2023-10-09T13:00:02;19.50;51.20
33943;DHT22;66763;47.856;17.462;2023-10-09T13:02:36;19.50;51.20
33943;DHT22;66763;47.856;17.462;2023-10-09T13:05:01;19.50;51.20
33943;DHT22;66763;47.856;17.462;2023-10-09T13:07:29;19.50;51.20
33943;DHT22;66763;47.856;17.462;2023-10-09T13:09:55;19.50;51.20
33943;DHT22;66763;47.856;17.462;2023-10-09T13:12:38;19.50;51.20
33943;DHT22;66763;47.856;17.462;2023-10-09T13:15:10;19.50;51.20
33943;DHT22;66763;47.856;17.462;2023-10-09T13:17:36;19.50;51.30
33943;DHT22;66763;47.856;17.462;2023-10-09T13:20:02;19.50;51.30
33943;DHT22;66763;47.856;17.462;2023-10-09T13:22:29;19.50;51.30
33943;DHT22;66763;47.856;17.462;2023-10-09T13:24:55;19.50;51.30
33943;DHT22;66763;47.856;17.462;2023-10-09T13:27:29;19.50;51.30
33943;DHT22;66763;47.856;17.462;2023-10-09T13:29:59;19.50;51.30
33943;DHT22;66763;47.856;17.462;2023-10-09T13:32:31;19.50;51.30
33943;DHT22;66763;47.856;17.462;2023-10-09T13:35:01;19.50;51.30
33943;DHT22;66763;47.856;17.462;2023-10-09T13:37:31;19.50;51.30
33943;DHT22;66763;47.856;17.462;2023-10-09T13:40:04;19.40;51.30
33943;DHT22;66763;47.856;17.462;2023-10-09T13:42:35;19.50;51.30
33943;DHT22;66763;47.856;17.462;2023-10-09T13:45:04;19.40;51.30
33943;DHT22;66763;47.856;17.462;2023-10-09T13:47:43;19.50;51.30
33943;DHT22;66763;47.856;17.462;2023-10-09T13:50:11;19.50;51.40
33943;DHT22;66763;47.856;17.462;2023-10-09T13:52:38;19.50;51.40
33943;DHT22;66763;47.856;17.462;2023-10-09T13:55:05;19.50;51.40
33943;DHT22;66763;47.856;17.462;2023-10-09T13:57:41;19.50;51.40
33943;DHT22;66763;47.856;17.462;2023-10-09T14:00:08;19.50;51.40
33943;DHT22;66763;47.856;17.462;2023-10-09T14:02:36;19.50;51.40
33943;DHT22;66763;47.856;17.462;2023-10-09T14:05:02;19.50;51.40
33943;DHT22;66763;47.856;17.462;2023-10-09T14:07:29;19.50;51.40
33943;DHT22;66763;47.856;17.462;2023-10-09T14:09:54;19.50;51.40
33943;DHT22;66763;47.856;17.462;2023-10-09T14:12:32;19.50;51.50
33943;DHT22;66763;47.856;17.462;2023-10-09T14:14:59;19.50;51.50
33943;DHT22;66763;47.856;17.462;2023-10-09T14:17:28;19.50;51.50
33943;DHT22;66763;47.856;17.462;2023-10-09T14:19:54;19.50;51.50
33943;DHT22;66763;47.856;17.462;2023-10-09T14:22:22;19.50;51.50
33943;DHT22;66763;47.856;17.462;2023-10-09T14:24:52;19.50;51.50
33943;DHT22;66763;47.856;17.462;2023-10-09T14:27:21;19.50;51.50
33943;DHT22;66763;47.856;17.462;2023-10-09T14:29:49;19.50;51.50
33943;DHT22;66763;47.856;17.462;2023-10-09T14:32:15;19.50;51.60
33943;DHT22;66763;47.856;17.462;2023-10-09T14:34:40;19.50;51.60
33943;DHT22;66763;47.856;17.462;2023-10-09T14:37:18;19.50;51.60
33943;DHT22;66763;47.856;17.462;2023-10-09T14:39:44;19.50;51.60
33943;DHT22;66763;47.856;17.462;2023-10-09T14:42:16;19.50;51.60
33943;DHT22;66763;47.856;17.462;2023-10-09T14:44:42;19.40;51.50
33943;DHT22;66763;47.856;17.462;2023-10-09T14:47:10;19.50;51.60
33943;DHT22;66763;47.856;17.462;2023-10-09T14:49:35;19.50;51.60
33943;DHT22;66763;47.856;17.462;2023-10-09T14:52:09;19.50;51.60
33943;DHT22;66763;47.856;17.462;2023-10-09T14:54:37;19.40;51.50
33943;DHT22;66763;47.856;17.462;2023-10-09T14:57:06;19.40;51.50
33943;DHT22;66763;47.856;17.462;2023-10-09T14:59:32;19.40;51.60
33943;DHT22;66763;47.856;17.462;2023-10-09T15:01:58;19.50;51.60
33943;DHT22;66763;47.856;17.462;2023-10-09T15:04:24;19.50;51.60
33943;DHT22;66763;47.856;17.462;2023-10-09T15:06:51;19.50;51.60
33943;DHT22;66763;47.856;17.462;2023-10-09T15:09:17;19.50;51.60
33943;DHT22;66763;47.856;17.462;2023-10-09T15:11:54;19.50;51.60
33943;DHT22;66763;47.856;17.462;2023-10-09T15:14:19;19.50;51.60
33943;DHT22;66763;47.856;17.462;2023-10-09T15:16:45;19.50;51.60
33943;DHT22;66763;47.856;17.462;2023-10-09T15:19:11;19.50;51.60
33943;DHT22;66763;47.856;17.462;2023-10-09T15:21:37;19.50;51.60
33943;DHT22;66763;47.856;17.462;2023-10-09T15:24:12;19.50;51.60
33943;DHT22;66763;47.856;17.462;2023-10-09T15:26:44;19.50;51.60
33943;DHT22;66763;47.856;17.462;2023-10-09T15:29:17;19.40;51.60
33943;DHT22;66763;47.856;17.462;2023-10-09T15:31:45;19.40;51.60
33943;DHT22;66763;47.856;17.462;2023-10-09T15:34:12;19.50;51.70
33943;DHT22;66763;47.856;17.462;2023-10-09T15:36:38;19.50;51.70
33943;DHT22;66763;47.856;17.462;2023-10-09T15:39:05;19.50;51.60
33943;DHT22;66763;47.856;17.462;2023-10-09T15:41:33;19.50;51.60
33943;DHT22;66763;47.856;17.462;2023-10-09T15:44:00;19.50;51.70
33943;DHT22;66763;47.856;17.462;2023-10-09T15:46:26;19.40;51.60
33943;DHT22;66763;47.856;17.462;2023-10-09T15:48:52;19.50;51.70
33943;DHT22;66763;47.856;17.462;2023-10-09T15:51:19;19.50;51.70
33943;DHT22;66763;47.856;17.462;2023-10-09T15:53:44;19.50;51.60
33943;DHT22;66763;47.856;17.462;2023-10-09T15:56:11;19.40;51.60
33943;DHT22;66763;47.856;17.462;2023-10-09T15:58:40;19.50;51.70
33943;DHT22;66763;47.856;17.462;2023-10-09T16:01:09;19.50;51.70
33943;DHT22;66763;47.856;17.462;2023-10-09T16:03:34;19.50;51.70
33943;DHT22;66763;47.856;17.462;2023-10-09T16:06:00;19.50;51.70